createdAt,value
2022-08-26T00:01:45.620Z,26.64
2022-08-26T00:06:38.397Z,26.61
2022-08-26T00:11:31.110Z,26.59
2022-08-26T00:16:23.954Z,26.63
2022-08-26T00:21:16.371Z,26.54
2022-08-26T00:26:08.735Z,26.59
2022-08-26T00:31:00.895Z,26.53
2022-08-26T00:35:53.716Z,26.51
2022-08-26T00:40:46.501Z,26.54
2022-08-26T00:45:39.339Z,26.54
2022-08-26T00:50:31.736Z,26.48
2022-08-26T00:55:20.440Z,26.51
2022-08-26T01:00:12.705Z,26.48
2022-08-26T01:05:06.519Z,26.49
2022-08-26T01:09:59.509Z,26.44
2022-08-26T01:14:52.543Z,26.51
2022-08-26T01:19:47.277Z,26.44
2022-08-26T01:24:41.741Z,26.43
2022-08-26T01:29:34.098Z,26.4
2022-08-26T01:34:26.638Z,26.4
2022-08-26T01:39:19.513Z,26.39
2022-08-26T01:44:12.232Z,26.38
2022-08-26T01:49:04.804Z,26.34
2022-08-26T01:53:57.587Z,26.4
2022-08-26T01:58:50.284Z,26.43
2022-08-26T02:03:42.917Z,26.45
2022-08-26T02:08:35.739Z,26.37
2022-08-26T02:13:28.237Z,26.36
2022-08-26T02:18:21.232Z,26.42
2022-08-26T02:23:13.749Z,26.35
2022-08-26T02:28:06.738Z,26.39
2022-08-26T02:32:59.380Z,26.34
2022-08-26T02:37:54.094Z,26.28
2022-08-26T02:42:46.823Z,26.33
2022-08-26T02:47:39.441Z,26.33
2022-08-26T02:52:31.737Z,26.28
2022-08-26T02:57:24.612Z,26.32
2022-08-26T03:02:17.340Z,26.29
2022-08-26T03:07:09.899Z,26.21
2022-08-26T03:12:04.682Z,26.22
2022-08-26T03:16:57.223Z,26.24
2022-08-26T03:21:49.969Z,26.23
2022-08-26T03:26:51.941Z,26.23
2022-08-26T03:31:37.297Z,26.23
2022-08-26T03:36:29.704Z,26.22
2022-08-26T03:41:22.330Z,26.24
2022-08-26T03:51:07.794Z,26.17
2022-08-26T03:56:00.535Z,26.17
2022-08-26T04:00:55.482Z,26.18
2022-08-26T04:05:46.156Z,26.19
2022-08-26T04:10:38.992Z,26.15
2022-08-26T04:15:31.773Z,26.19
2022-08-26T04:20:24.297Z,26.1
2022-08-26T04:25:16.956Z,26.11
2022-08-26T04:30:10.849Z,26.15
2022-08-26T04:35:03.358Z,26.13
2022-08-26T04:39:56.183Z,26.12
2022-08-26T04:44:48.985Z,26.12
2022-08-26T04:49:41.521Z,26
2022-08-26T04:54:34.384Z,25.86
2022-08-26T04:59:26.922Z,25.58
2022-08-26T05:04:19.381Z,25.45
2022-08-26T05:09:12.074Z,25.3
2022-08-26T05:14:04.866Z,25.19
2022-08-26T05:18:57.740Z,25.14
2022-08-26T05:23:50.283Z,25.12
2022-08-26T05:28:42.947Z,24.93
2022-08-26T05:33:35.267Z,24.8
2022-08-26T05:38:30.375Z,24.91
2022-08-26T05:43:21.011Z,24.67
2022-08-26T05:48:13.405Z,24.6
2022-08-26T05:53:06.215Z,24.63
2022-08-26T05:57:59.286Z,24.27
2022-08-26T06:02:52.163Z,24.54
2022-08-26T06:07:45.061Z,24.41
2022-08-26T06:12:38.144Z,24.72
2022-08-26T06:17:30.697Z,24.49
2022-08-26T06:22:23.663Z,24.55
2022-08-26T06:27:16.004Z,24.62
2022-08-26T06:32:08.888Z,24.06
2022-08-26T06:37:01.983Z,24.87
2022-08-26T06:41:48.602Z,24.78
2022-08-26T06:46:41.888Z,24.88
2022-08-26T06:51:35.719Z,24.92
2022-08-26T06:56:28.142Z,24.71
2022-08-26T07:01:21.316Z,24.88
2022-08-26T07:06:13.829Z,24.98
2022-08-26T07:11:06.499Z,24.92
2022-08-26T07:16:03.004Z,24.99
2022-08-26T07:20:53.461Z,24.66
2022-08-26T07:25:46.138Z,24.92
2022-08-26T07:30:33.315Z,25.05
2022-08-26T07:35:27.162Z,25.17
2022-08-26T07:40:20.692Z,25.12
2022-08-26T07:45:13.444Z,25.32
2022-08-26T07:50:06.062Z,25.27
2022-08-26T07:54:58.935Z,25.37
2022-08-26T07:59:52.108Z,25.56
2022-08-26T08:04:44.989Z,25.67
2022-08-26T08:09:37.905Z,25.76
2022-08-26T08:14:30.403Z,25.73
2022-08-26T08:19:23.054Z,25.87
2022-08-26T08:24:15.850Z,25.94
2022-08-26T08:29:08.422Z,25.96
2022-08-26T08:34:01.110Z,26.03
2022-08-26T08:38:59.408Z,26.14
2022-08-26T08:43:51.126Z,26.2
2022-08-26T08:48:43.930Z,26.34
2022-08-26T08:53:31.004Z,26.39
2022-08-26T08:58:24.733Z,26.44
2022-08-26T09:03:18.636Z,26.56
2022-08-26T09:08:11.712Z,26.58
2022-08-26T09:13:04.161Z,26.54
2022-08-26T09:17:57.263Z,26.73
2022-08-26T09:22:50.448Z,26.73
2022-08-26T09:27:43.409Z,26.84
2022-08-26T09:32:36.216Z,26.84
2022-08-26T09:37:29.186Z,26.91
2022-08-26T09:42:22.045Z,26.97
2022-08-26T09:47:14.824Z,27.01
2022-08-26T09:52:07.277Z,27.02
2022-08-26T09:57:00.077Z,27.2
2022-08-26T10:01:53.002Z,27.09
2022-08-26T10:06:45.590Z,27.14
2022-08-26T10:11:38.197Z,27.27
2022-08-26T10:16:30.969Z,27.36
2022-08-26T10:21:23.651Z,27.37
2022-08-26T10:26:16.429Z,27.4
2022-08-26T10:31:09.121Z,27.38
2022-08-26T10:36:01.791Z,27.38
2022-08-26T10:40:54.637Z,27.39
2022-08-26T10:45:47.238Z,27.38
2022-08-26T10:50:40.000Z,27.41
2022-08-26T10:55:34.688Z,27.39
2022-08-26T11:00:25.320Z,27.4
2022-08-26T11:05:18.028Z,27.33
2022-08-26T11:10:10.832Z,27.34
2022-08-26T11:15:05.179Z,27.33
2022-08-26T11:20:01.326Z,27.33
2022-08-26T11:24:49.765Z,27.34
2022-08-26T11:29:42.558Z,27.36
2022-08-26T11:34:35.244Z,27.36
2022-08-26T11:39:28.079Z,27.38
2022-08-26T11:44:20.973Z,27.4
2022-08-26T11:49:13.938Z,27.42
2022-08-26T11:54:06.541Z,27.43
2022-08-26T11:58:59.364Z,27.46
2022-08-26T12:03:52.465Z,27.46
2022-08-26T12:08:45.386Z,27.47
2022-08-26T12:13:37.850Z,27.5
2022-08-26T12:18:30.794Z,27.52
2022-08-26T12:23:23.578Z,27.53
2022-08-26T12:28:16.617Z,27.55
2022-08-26T12:33:12.504Z,27.58
2022-08-26T12:38:02.248Z,27.59
2022-08-26T12:42:55.180Z,27.62
2022-08-26T12:47:47.788Z,27.64
2022-08-26T12:52:40.493Z,27.66
2022-08-26T12:57:33.373Z,27.71
2022-08-26T13:02:26.316Z,27.72
2022-08-26T13:07:19.185Z,27.77
2022-08-26T13:12:12.188Z,27.77
2022-08-26T13:17:04.732Z,27.77
2022-08-26T13:21:57.659Z,27.76
2022-08-26T13:26:50.357Z,27.75
2022-08-26T13:31:43.270Z,27.76
2022-08-26T13:36:39.937Z,27.76
2022-08-26T13:41:32.127Z,27.77
2022-08-26T13:46:24.937Z,27.79
2022-08-26T13:51:17.856Z,27.77
2022-08-26T13:56:11.166Z,27.79
2022-08-26T14:01:03.610Z,27.78
2022-08-26T14:05:56.229Z,27.81
2022-08-26T14:15:41.711Z,27.78
2022-08-26T14:20:34.570Z,27.76
2022-08-26T14:25:27.161Z,27.77
2022-08-26T14:30:19.894Z,27.76
2022-08-26T14:35:12.855Z,27.77
2022-08-26T14:40:05.629Z,27.74
2022-08-26T14:44:58.539Z,27.76
2022-08-26T14:49:51.528Z,27.75
2022-08-26T14:54:44.265Z,27.74
2022-08-26T14:59:37.137Z,27.71
2022-08-26T15:04:29.882Z,27.69
2022-08-26T15:09:22.657Z,27.67
2022-08-26T15:14:19.261Z,27.53
2022-08-26T15:19:08.144Z,27.45
2022-08-26T15:24:00.906Z,27.35
2022-08-26T15:28:53.327Z,26.92
2022-08-26T15:33:45.605Z,26.62
2022-08-26T15:38:38.433Z,26.65
2022-08-26T15:43:31.043Z,26.24
2022-08-26T15:48:22.718Z,25.86
2022-08-26T15:53:16.095Z,26.12
2022-08-26T15:58:09.808Z,26.42
2022-08-26T16:03:02.108Z,26.19
2022-08-26T16:07:55.051Z,26.42
2022-08-26T16:12:47.526Z,26.13
2022-08-26T16:22:32.232Z,25.84
2022-08-26T16:27:25.280Z,25.91
2022-08-26T16:32:18.180Z,26.14
2022-08-26T16:42:04.052Z,26.18
2022-08-26T16:46:51.222Z,26.05
2022-08-26T16:51:44.440Z,25.96
2022-08-26T16:56:38.238Z,25.5
2022-08-26T17:01:31.244Z,25.21
2022-08-26T17:06:23.433Z,25.36
2022-08-26T17:11:16.099Z,25.65
2022-08-26T17:16:04.202Z,25.25
2022-08-26T17:20:56.618Z,25.66
2022-08-26T17:25:51.081Z,25.93
2022-08-26T17:30:43.745Z,26
2022-08-26T17:35:36.519Z,25.99
2022-08-26T17:40:29.086Z,25.76
2022-08-26T17:45:21.940Z,25.78
2022-08-26T17:50:14.985Z,25.98
2022-08-26T17:55:07.465Z,25.86
2022-08-26T17:59:59.452Z,25.59
2022-08-26T18:04:52.655Z,25.98
2022-08-26T18:09:45.583Z,26.04
2022-08-26T18:14:38.597Z,26.1
2022-08-26T18:19:31.447Z,26.14
2022-08-26T18:24:18.145Z,26.1
2022-08-26T18:29:11.987Z,26.16
2022-08-26T18:34:06.082Z,26.2
2022-08-26T18:39:01.081Z,26.25
2022-08-26T18:43:53.420Z,26.27
2022-08-26T18:48:49.048Z,26.29
2022-08-26T18:53:38.890Z,26.29
2022-08-26T18:58:31.671Z,26.3
2022-08-26T19:03:24.678Z,26.3
2022-08-26T19:08:19.379Z,26.33
2022-08-26T19:13:05.863Z,26.33
2022-08-26T19:17:59.842Z,26.34
2022-08-26T19:22:53.772Z,26.34
2022-08-26T19:27:47.690Z,26.32
2022-08-26T19:32:40.375Z,26.33
2022-08-26T19:37:32.929Z,26.32
2022-08-26T19:42:25.768Z,26.35
2022-08-26T19:47:18.332Z,26.38
2022-08-26T19:52:11.113Z,26.38
2022-08-26T19:57:03.752Z,26.38
2022-08-26T20:02:00.911Z,26.4
2022-08-26T20:06:49.448Z,26.4
2022-08-26T20:11:42.333Z,26.41
2022-08-26T20:16:35.194Z,26.43
2022-08-26T20:21:27.721Z,26.42
2022-08-26T20:26:20.444Z,26.41
2022-08-26T20:31:12.976Z,26.44
2022-08-26T20:36:07.208Z,26.43
2022-08-26T20:40:58.707Z,26.44
2022-08-26T20:45:51.677Z,26.43
2022-08-26T20:50:44.309Z,26.42
2022-08-26T20:55:37.361Z,26.46
2022-08-26T21:00:24.529Z,26.43
2022-08-26T21:05:19.716Z,26.43
2022-08-26T21:10:06.862Z,26.42
2022-08-26T21:15:02.397Z,26.42
2022-08-26T21:19:55.663Z,26.4
2022-08-26T21:24:48.540Z,26.42
2022-08-26T21:29:41.341Z,26.42
2022-08-26T21:34:34.381Z,26.41
2022-08-26T21:39:27.000Z,26.42
2022-08-26T21:44:19.454Z,26.4
2022-08-26T21:49:12.139Z,26.4
2022-08-26T21:54:07.578Z,26.37
2022-08-26T21:58:57.436Z,26.39
2022-08-26T22:03:50.478Z,26.39
2022-08-26T22:08:43.088Z,26.36
2022-08-26T22:13:35.853Z,26.38
2022-08-26T22:18:28.463Z,26.39
2022-08-26T22:28:14.524Z,26.36
2022-08-26T22:33:07.469Z,26.4
2022-08-26T22:38:00.154Z,26.37
2022-08-26T22:42:55.514Z,26.38
2022-08-26T22:47:40.732Z,26.37
2022-08-26T22:52:28.640Z,26.39
2022-08-26T22:57:22.430Z,26.37
2022-08-26T23:02:16.109Z,26.35
2022-08-26T23:07:08.903Z,26.34
2022-08-26T23:12:03.792Z,26.36
2022-08-26T23:16:56.826Z,26.36
2022-08-26T23:21:49.424Z,26.32
2022-08-26T23:26:42.230Z,26.33
2022-08-26T23:31:34.659Z,26.3
2022-08-26T23:36:29.281Z,26.27
2022-08-26T23:41:21.665Z,26.25
2022-08-26T23:46:14.733Z,26.25
2022-08-26T23:51:09.433Z,26.23
2022-08-26T23:56:01.975Z,26.25
